Craig Municipal Airport Jacksonville US
ICAO: KCRG
IATA: CRG
Category: Medium
Scheduled Services: No

Elevation: 41 ft
TransAlt. 18000 ft.

Airport Communications:
JACKSONVILLE APP:124.9
ATIS:125.4
CLNC DEL:118.35
CTAF:132.1
JACKSONVILLE DEP:118
GND:121.8
GAINESVILLE RDO:122.2
TWR:132.1
UNICOM:122.95

KCRG Zoom In..

If you have problems with the map follow the link
https://www.worldairports.se/pages/airport.php?
ICAO=KCRG

Runways:

(A) RW 05 length 4004 ft width 100 ft
---- / hdg 51

(B) RW 14 length 4008 ft width 100 ft
---- / hdg 141

(C) RW 23 length 4004 ft width 100 ft
---- / hdg 231

(D) RW 32 length 4008 ft width 100 ft
ILS 111.70 / hdg 321

Location; KCRG
Day. 13 / Time. 13.42 Zulu
* Altimeter: 30.00
* Temperature: 20° c. 68°f.
* Wind from: 280° Speed 06 kn.
Dewpoint: 19° c.
Visibility: 1 Statute Miles.
Clouds: Scattered 500 ft.
Clouds: Overcast 800 ft.
Conditions: Light Rain.Conditions: Mist.

KCRG 131342Z 28006KT 1SM -RA BR SCT005 OVC008 20/19 A3000 RMK AO2 LTG DSNT E P0050 T02000194


Wind From 280°
Speed 06 kn.

 
 
jpsmedia worldairports.se 2019   terms of use